sensor_id;sensor_type;location;lat;lon;timestamp;temperature;humidity
45383;DHT22;42455;51.660;5.824;2023-06-24T00:00:04;21.1;87.0
45383;DHT22;42455;51.660;5.824;2023-06-24T00:05:10;21.2;87.0
45383;DHT22;42455;51.660;5.824;2023-06-24T00:10:16;21.2;87.0
45383;DHT22;42455;51.660;5.824;2023-06-24T00:15:22;21.2;87.0
45383;DHT22;42455;51.660;5.824;2023-06-24T00:20:28;21.2;87.5
45383;DHT22;42455;51.660;5.824;2023-06-24T00:25:35;21.2;87.5
45383;DHT22;42455;51.660;5.824;2023-06-24T00:30:41;21.3;87.0
45383;DHT22;42455;51.660;5.824;2023-06-24T00:35:47;21.3;87.0
45383;DHT22;42455;51.660;5.824;2023-06-24T00:40:53;21.3;86.5
45383;DHT22;42455;51.660;5.824;2023-06-24T00:46:00;21.3;86.5
45383;DHT22;42455;51.660;5.824;2023-06-24T00:51:06;21.2;86.5
45383;DHT22;42455;51.660;5.824;2023-06-24T00:56:12;21.2;86.5
45383;DHT22;42455;51.660;5.824;2023-06-24T01:01:18;21.2;86.5
45383;DHT22;42455;51.660;5.824;2023-06-24T01:06:24;21.1;86.5
45383;DHT22;42455;51.660;5.824;2023-06-24T01:11:30;21.0;87.0
45383;DHT22;42455;51.660;5.824;2023-06-24T01:16:42;21.0;87.0
45383;DHT22;42455;51.660;5.824;2023-06-24T01:22:30;20.9;87.0
45383;DHT22;42455;51.660;5.824;2023-06-24T01:29:42;20.8;87.0
45383;DHT22;42455;51.660;5.824;2023-06-24T01:34:02;20.7;87.5
45383;DHT22;42455;51.660;5.824;2023-06-24T01:37:10;20.6;87.5
45383;DHT22;42455;51.660;5.824;2023-06-24T01:42:14;20.5;88.0
45383;DHT22;42455;51.660;5.824;2023-06-24T01:47:16;20.4;88.0
45383;DHT22;42455;51.660;5.824;2023-06-24T01:52:21;20.4;88.5
45383;DHT22;42455;51.660;5.824;2023-06-24T02:02:33;20.3;88.5
45383;DHT22;42455;51.660;5.824;2023-06-24T02:07:40;20.3;88.5
45383;DHT22;42455;51.660;5.824;2023-06-24T02:12:47;20.2;88.5
45383;DHT22;42455;51.660;5.824;2023-06-24T02:17:52;20.2;88.5
45383;DHT22;42455;51.660;5.824;2023-06-24T02:22:58;20.1;88.5
45383;DHT22;42455;51.660;5.824;2023-06-24T02:28:04;20.0;88.5
45383;DHT22;42455;51.660;5.824;2023-06-24T02:33:10;20.0;88.5
45383;DHT22;42455;51.660;5.824;2023-06-24T02:38:16;19.9;88.5
45383;DHT22;42455;51.660;5.824;2023-06-24T02:43:22;19.9;89.0
45383;DHT22;42455;51.660;5.824;2023-06-24T02:48:31;19.8;89.0
45383;DHT22;42455;51.660;5.824;2023-06-24T02:53:35;19.7;89.0
45383;DHT22;42455;51.660;5.824;2023-06-24T02:58:41;19.7;89.0
45383;DHT22;42455;51.660;5.824;2023-06-24T03:03:48;19.6;89.5
45383;DHT22;42455;51.660;5.824;2023-06-24T03:08:53;19.5;89.5
45383;DHT22;42455;51.660;5.824;2023-06-24T03:13:59;19.5;89.5
45383;DHT22;42455;51.660;5.824;2023-06-24T03:19:06;19.4;90.0
45383;DHT22;42455;51.660;5.824;2023-06-24T03:24:12;19.4;90.0
45383;DHT22;42455;51.660;5.824;2023-06-24T03:29:18;19.3;90.0
45383;DHT22;42455;51.660;5.824;2023-06-24T03:34:24;19.2;90.0
45383;DHT22;42455;51.660;5.824;2023-06-24T03:39:30;19.1;90.5
45383;DHT22;42455;51.660;5.824;2023-06-24T03:44:37;19.1;90.5
45383;DHT22;42455;51.660;5.824;2023-06-24T03:49:43;19.1;91.0
45383;DHT22;42455;51.660;5.824;2023-06-24T03:54:49;19.0;91.0
45383;DHT22;42455;51.660;5.824;2023-06-24T03:59:55;19.0;91.5
45383;DHT22;42455;51.660;5.824;2023-06-24T04:05:02;19.0;91.5
45383;DHT22;42455;51.660;5.824;2023-06-24T04:10:08;19.0;91.5
45383;DHT22;42455;51.660;5.824;2023-06-24T04:15:14;19.0;91.5
45383;DHT22;42455;51.660;5.824;2023-06-24T04:20:20;19.0;91.5
45383;DHT22;42455;51.660;5.824;2023-06-24T04:25:26;19.0;92.0
45383;DHT22;42455;51.660;5.824;2023-06-24T04:30:33;19.0;92.0
45383;DHT22;42455;51.660;5.824;2023-06-24T04:35:39;19.1;92.0
45383;DHT22;42455;51.660;5.824;2023-06-24T04:40:45;19.1;92.0
45383;DHT22;42455;51.660;5.824;2023-06-24T04:45:51;19.1;92.0
45383;DHT22;42455;51.660;5.824;2023-06-24T04:50:57;19.1;92.0
45383;DHT22;42455;51.660;5.824;2023-06-24T04:56:04;19.2;92.0
45383;DHT22;42455;51.660;5.824;2023-06-24T05:01:10;19.3;92.5
45383;DHT22;42455;51.660;5.824;2023-06-24T05:06:16;19.4;92.5
45383;DHT22;42455;51.660;5.824;2023-06-24T05:11:22;19.5;92.0
45383;DHT22;42455;51.660;5.824;2023-06-24T05:16:28;19.6;92.0
45383;DHT22;42455;51.660;5.824;2023-06-24T05:21:35;19.7;91.5
45383;DHT22;42455;51.660;5.824;2023-06-24T05:26:40;19.8;91.0
45383;DHT22;42455;51.660;5.824;2023-06-24T05:31:46;19.9;91.0
45383;DHT22;42455;51.660;5.824;2023-06-24T05:36:52;20.0;90.5
45383;DHT22;42455;51.660;5.824;2023-06-24T05:41:59;20.1;90.5
45383;DHT22;42455;51.660;5.824;2023-06-24T05:47:05;20.2;90.5
45383;DHT22;42455;51.660;5.824;2023-06-24T05:52:11;20.3;90.0
45383;DHT22;42455;51.660;5.824;2023-06-24T05:57:17;20.5;90.0
45383;DHT22;42455;51.660;5.824;2023-06-24T06:02:23;20.6;89.5
45383;DHT22;42455;51.660;5.824;2023-06-24T06:07:29;20.8;89.0
45383;DHT22;42455;51.660;5.824;2023-06-24T06:12:36;20.9;88.5
45383;DHT22;42455;51.660;5.824;2023-06-24T06:17:42;21.1;88.5
45383;DHT22;42455;51.660;5.824;2023-06-24T06:22:48;21.4;88.0
45383;DHT22;42455;51.660;5.824;2023-06-24T06:27:54;21.6;87.5
45383;DHT22;42455;51.660;5.824;2023-06-24T06:33:01;21.9;87.0
45383;DHT22;42455;51.660;5.824;2023-06-24T06:38:07;22.2;86.5
45383;DHT22;42455;51.660;5.824;2023-06-24T06:43:13;22.6;85.0
45383;DHT22;42455;51.660;5.824;2023-06-24T06:48:19;22.8;84.0
45383;DHT22;42455;51.660;5.824;2023-06-24T06:53:25;23.1;83.5
45383;DHT22;42455;51.660;5.824;2023-06-24T06:58:32;23.4;82.5
45383;DHT22;42455;51.660;5.824;2023-06-24T07:03:38;23.7;81.5
45383;DHT22;42455;51.660;5.824;2023-06-24T07:08:44;24.0;80.5
45383;DHT22;42455;51.660;5.824;2023-06-24T07:13:50;24.2;79.5
45383;DHT22;42455;51.660;5.824;2023-06-24T07:18:56;24.4;78.5
45383;DHT22;42455;51.660;5.824;2023-06-24T07:24:03;24.7;78.0
45383;DHT22;42455;51.660;5.824;2023-06-24T07:29:09;25.0;78.0
45383;DHT22;42455;51.660;5.824;2023-06-24T07:34:15;25.2;77.0
45383;DHT22;42455;51.660;5.824;2023-06-24T07:39:21;25.4;76.5
45383;DHT22;42455;51.660;5.824;2023-06-24T07:44:27;25.7;76.5
45383;DHT22;42455;51.660;5.824;2023-06-24T07:49:34;25.9;76.0
45383;DHT22;42455;51.660;5.824;2023-06-24T07:54:40;26.1;75.0
45383;DHT22;42455;51.660;5.824;2023-06-24T07:59:46;26.3;73.5
45383;DHT22;42455;51.660;5.824;2023-06-24T08:04:52;26.3;72.5
45383;DHT22;42455;51.660;5.824;2023-06-24T08:09:59;26.5;71.5
45383;DHT22;42455;51.660;5.824;2023-06-24T08:15:05;26.7;70.5
45383;DHT22;42455;51.660;5.824;2023-06-24T08:20:11;26.8;69.0
45383;DHT22;42455;51.660;5.824;2023-06-24T08:25:17;27.0;68.0
45383;DHT22;42455;51.660;5.824;2023-06-24T08:30:24;27.0;68.5
45383;DHT22;42455;51.660;5.824;2023-06-24T08:35:30;27.1;68.0
45383;DHT22;42455;51.660;5.824;2023-06-24T08:40:36;27.2;68.5
45383;DHT22;42455;51.660;5.824;2023-06-24T08:45:42;27.4;68.5
45383;DHT22;42455;51.660;5.824;2023-06-24T08:50:52;27.5;68.0
45383;DHT22;42455;51.660;5.824;2023-06-24T09:01:01;27.8;67.0
45383;DHT22;42455;51.660;5.824;2023-06-24T09:06:07;27.9;66.5
45383;DHT22;42455;51.660;5.824;2023-06-24T09:11:21;28.0;66.0
45383;DHT22;42455;51.660;5.824;2023-06-24T09:16:20;28.1;66.0
45383;DHT22;42455;51.660;5.824;2023-06-24T09:21:27;28.3;65.0
45383;DHT22;42455;51.660;5.824;2023-06-24T09:26:32;28.4;64.5
45383;DHT22;42455;51.660;5.824;2023-06-24T09:31:45;28.5;64.0
45383;DHT22;42455;51.660;5.824;2023-06-24T09:36:45;28.5;63.5
45383;DHT22;42455;51.660;5.824;2023-06-24T09:41:51;28.6;63.5
45383;DHT22;42455;51.660;5.824;2023-06-24T09:46:57;28.8;63.0
45383;DHT22;42455;51.660;5.824;2023-06-24T09:52:04;28.9;62.0
45383;DHT22;42455;51.660;5.824;2023-06-24T09:57:10;29.0;62.5
45383;DHT22;42455;51.660;5.824;2023-06-24T10:02:18;29.1;62.5
45383;DHT22;42455;51.660;5.824;2023-06-24T10:07:22;29.3;61.0
45383;DHT22;42455;51.660;5.824;2023-06-24T10:12:28;29.3;60.0
45383;DHT22;42455;51.660;5.824;2023-06-24T10:17:34;29.3;60.0
45383;DHT22;42455;51.660;5.824;2023-06-24T10:22:45;29.3;59.5
45383;DHT22;42455;51.660;5.824;2023-06-24T10:27:53;29.4;59.5
45383;DHT22;42455;51.660;5.824;2023-06-24T10:32:53;29.5;58.5
45383;DHT22;42455;51.660;5.824;2023-06-24T10:38:00;29.5;58.5
45383;DHT22;42455;51.660;5.824;2023-06-24T10:43:25;29.6;58.5
45383;DHT22;42455;51.660;5.824;2023-06-24T10:48:12;29.6;58.0
45383;DHT22;42455;51.660;5.824;2023-06-24T10:53:18;29.7;58.0
45383;DHT22;42455;51.660;5.824;2023-06-24T10:58:23;29.7;58.0
45383;DHT22;42455;51.660;5.824;2023-06-24T11:03:34;29.8;57.5
45383;DHT22;42455;51.660;5.824;2023-06-24T11:08:42;29.9;58.0
45383;DHT22;42455;51.660;5.824;2023-06-24T11:13:42;29.9;57.5
45383;DHT22;42455;51.660;5.824;2023-06-24T11:18:48;30.0;57.5
45383;DHT22;42455;51.660;5.824;2023-06-24T11:23:54;30.1;57.0
45383;DHT22;42455;51.660;5.824;2023-06-24T11:29:00;30.2;57.0
45383;DHT22;42455;51.660;5.824;2023-06-24T11:34:08;30.2;57.5
45383;DHT22;42455;51.660;5.824;2023-06-24T11:39:21;30.3;57.5
45383;DHT22;42455;51.660;5.824;2023-06-24T11:44:19;30.4;58.0
45383;DHT22;42455;51.660;5.824;2023-06-24T11:49:25;30.5;57.5
45383;DHT22;42455;51.660;5.824;2023-06-24T11:54:40;30.5;57.5
45383;DHT22;42455;51.660;5.824;2023-06-24T11:59:38;30.6;57.0
45383;DHT22;42455;51.660;5.824;2023-06-24T12:09:50;30.8;55.5
45383;DHT22;42455;51.660;5.824;2023-06-24T12:14:56;30.8;55.5
45383;DHT22;42455;51.660;5.824;2023-06-24T12:20:03;30.8;56.0
45383;DHT22;42455;51.660;5.824;2023-06-24T12:25:09;30.8;56.0
45383;DHT22;42455;51.660;5.824;2023-06-24T12:30:15;30.9;56.5
45383;DHT22;42455;51.660;5.824;2023-06-24T12:35:22;30.9;56.0
45383;DHT22;42455;51.660;5.824;2023-06-24T12:40:27;31.0;57.0
45383;DHT22;42455;51.660;5.824;2023-06-24T12:45:34;31.1;57.5
45383;DHT22;42455;51.660;5.824;2023-06-24T12:50:40;31.2;56.0
45383;DHT22;42455;51.660;5.824;2023-06-24T12:55:46;31.3;55.5
45383;DHT22;42455;51.660;5.824;2023-06-24T13:00:52;31.4;55.0
45383;DHT22;42455;51.660;5.824;2023-06-24T13:05:58;31.5;55.0
45383;DHT22;42455;51.660;5.824;2023-06-24T13:11:04;31.6;56.0
45383;DHT22;42455;51.660;5.824;2023-06-24T13:16:11;31.7;56.5
45383;DHT22;42455;51.660;5.824;2023-06-24T13:21:17;31.7;54.5
45383;DHT22;42455;51.660;5.824;2023-06-24T13:26:23;31.6;54.5
45383;DHT22;42455;51.660;5.824;2023-06-24T13:31:29;31.6;55.5
45383;DHT22;42455;51.660;5.824;2023-06-24T13:36:37;31.6;55.5
45383;DHT22;42455;51.660;5.824;2023-06-24T13:41:42;31.6;55.5
45383;DHT22;42455;51.660;5.824;2023-06-24T13:46:48;31.6;55.5
45383;DHT22;42455;51.660;5.824;2023-06-24T13:51:54;31.7;55.5
45383;DHT22;42455;51.660;5.824;2023-06-24T13:57:00;31.7;54.5
45383;DHT22;42455;51.660;5.824;2023-06-24T14:02:07;31.7;54.5
45383;DHT22;42455;51.660;5.824;2023-06-24T14:07:13;31.7;54.0
45383;DHT22;42455;51.660;5.824;2023-06-24T14:12:19;31.6;53.0
45383;DHT22;42455;51.660;5.824;2023-06-24T14:17:25;31.5;53.5
45383;DHT22;42455;51.660;5.824;2023-06-24T14:22:31;31.6;55.0
45383;DHT22;42455;51.660;5.824;2023-06-24T14:27:38;31.7;55.0
45383;DHT22;42455;51.660;5.824;2023-06-24T14:32:44;31.9;55.0
45383;DHT22;42455;51.660;5.824;2023-06-24T14:37:50;31.9;54.0
45383;DHT22;42455;51.660;5.824;2023-06-24T14:42:56;31.9;53.5
45383;DHT22;42455;51.660;5.824;2023-06-24T14:48:02;31.9;54.0
45383;DHT22;42455;51.660;5.824;2023-06-24T14:53:09;32.0;53.5
45383;DHT22;42455;51.660;5.824;2023-06-24T14:58:15;32.0;53.5
45383;DHT22;42455;51.660;5.824;2023-06-24T15:03:21;32.0;54.0
45383;DHT22;42455;51.660;5.824;2023-06-24T15:08:27;32.1;55.5
45383;DHT22;42455;51.660;5.824;2023-06-24T15:13:34;32.2;54.5
45383;DHT22;42455;51.660;5.824;2023-06-24T15:18:43;32.2;53.5
45383;DHT22;42455;51.660;5.824;2023-06-24T15:23:46;32.2;52.5
45383;DHT22;42455;51.660;5.824;2023-06-24T15:28:52;32.2;53.0
45383;DHT22;42455;51.660;5.824;2023-06-24T15:33:58;32.2;53.0
45383;DHT22;42455;51.660;5.824;2023-06-24T15:39:05;32.2;52.0
45383;DHT22;42455;51.660;5.824;2023-06-24T15:44:11;32.2;52.0
45383;DHT22;42455;51.660;5.824;2023-06-24T15:49:17;32.2;51.5
45383;DHT22;42455;51.660;5.824;2023-06-24T15:54:23;32.1;51.5
45383;DHT22;42455;51.660;5.824;2023-06-24T15:59:29;32.2;51.5
45383;DHT22;42455;51.660;5.824;2023-06-24T16:04:36;32.2;51.5
45383;DHT22;42455;51.660;5.824;2023-06-24T16:09:42;32.2;51.5
45383;DHT22;42455;51.660;5.824;2023-06-24T16:14:48;32.2;51.0
45383;DHT22;42455;51.660;5.824;2023-06-24T16:19:54;32.3;51.0
45383;DHT22;42455;51.660;5.824;2023-06-24T16:25:01;32.3;51.0
45383;DHT22;42455;51.660;5.824;2023-06-24T16:30:06;32.3;51.0
45383;DHT22;42455;51.660;5.824;2023-06-24T16:35:12;32.3;51.5
45383;DHT22;42455;51.660;5.824;2023-06-24T16:40:18;32.3;51.5
45383;DHT22;42455;51.660;5.824;2023-06-24T16:45:24;32.1;51.0
45383;DHT22;42455;51.660;5.824;2023-06-24T16:50:31;32.0;51.5
45383;DHT22;42455;51.660;5.824;2023-06-24T16:55:37;32.0;52.5
45383;DHT22;42455;51.660;5.824;2023-06-24T17:00:42;32.1;52.5
45383;DHT22;42455;51.660;5.824;2023-06-24T17:05:48;32.2;52.5
45383;DHT22;42455;51.660;5.824;2023-06-24T17:10:54;32.2;53.0
45383;DHT22;42455;51.660;5.824;2023-06-24T17:16:01;32.3;52.5
45383;DHT22;42455;51.660;5.824;2023-06-24T17:21:07;32.3;52.5
45383;DHT22;42455;51.660;5.824;2023-06-24T17:26:13;32.2;51.5
45383;DHT22;42455;51.660;5.824;2023-06-24T17:31:19;32.0;51.0
45383;DHT22;42455;51.660;5.824;2023-06-24T17:36:25;31.9;51.0
45383;DHT22;42455;51.660;5.824;2023-06-24T17:41:32;31.7;51.0
45383;DHT22;42455;51.660;5.824;2023-06-24T17:46:38;31.6;51.0
45383;DHT22;42455;51.660;5.824;2023-06-24T17:51:44;31.5;51.5
45383;DHT22;42455;51.660;5.824;2023-06-24T17:56:50;31.6;52.5
45383;DHT22;42455;51.660;5.824;2023-06-24T18:01:57;31.6;52.5
45383;DHT22;42455;51.660;5.824;2023-06-24T18:07:03;31.7;53.5
45383;DHT22;42455;51.660;5.824;2023-06-24T18:12:09;31.8;53.0
45383;DHT22;42455;51.660;5.824;2023-06-24T18:17:15;31.8;52.5
45383;DHT22;42455;51.660;5.824;2023-06-24T18:22:21;31.9;53.5
45383;DHT22;42455;51.660;5.824;2023-06-24T18:27:28;31.9;52.5
45383;DHT22;42455;51.660;5.824;2023-06-24T18:32:34;31.8;51.5
45383;DHT22;42455;51.660;5.824;2023-06-24T18:37:40;31.6;52.0
45383;DHT22;42455;51.660;5.824;2023-06-24T18:42:46;31.5;52.5
45383;DHT22;42455;51.660;5.824;2023-06-24T18:47:52;31.4;52.5
45383;DHT22;42455;51.660;5.824;2023-06-24T18:52:59;31.4;52.5
45383;DHT22;42455;51.660;5.824;2023-06-24T18:58:05;31.3;52.5
45383;DHT22;42455;51.660;5.824;2023-06-24T19:03:11;31.2;53.0
45383;DHT22;42455;51.660;5.824;2023-06-24T19:08:17;31.0;52.5
45383;DHT22;42455;51.660;5.824;2023-06-24T19:18:30;30.6;53.5
45383;DHT22;42455;51.660;5.824;2023-06-24T19:23:36;30.4;54.5
45383;DHT22;42455;51.660;5.824;2023-06-24T19:28:42;30.2;56.0
45383;DHT22;42455;51.660;5.824;2023-06-24T19:33:48;29.9;57.0
45383;DHT22;42455;51.660;5.824;2023-06-24T19:38:55;29.7;57.5
45383;DHT22;42455;51.660;5.824;2023-06-24T19:44:05;29.4;58.0
45383;DHT22;42455;51.660;5.824;2023-06-24T19:49:07;29.1;59.0
45383;DHT22;42455;51.660;5.824;2023-06-24T19:54:13;28.8;60.0
45383;DHT22;42455;51.660;5.824;2023-06-24T19:59:19;28.5;61.0
45383;DHT22;42455;51.660;5.824;2023-06-24T20:04:26;28.2;62.5
45383;DHT22;42455;51.660;5.824;2023-06-24T20:09:33;28.0;63.0
45383;DHT22;42455;51.660;5.824;2023-06-24T20:14:38;27.7;63.5
45383;DHT22;42455;51.660;5.824;2023-06-24T20:19:44;27.5;64.5
45383;DHT22;42455;51.660;5.824;2023-06-24T20:24:51;27.3;65.5
45383;DHT22;42455;51.660;5.824;2023-06-24T20:29:57;27.0;66.0
45383;DHT22;42455;51.660;5.824;2023-06-24T20:35:04;26.8;67.0
45383;DHT22;42455;51.660;5.824;2023-06-24T20:40:09;26.6;67.5
45383;DHT22;42455;51.660;5.824;2023-06-24T20:45:15;26.4;68.5
45383;DHT22;42455;51.660;5.824;2023-06-24T20:50:22;26.2;69.0
45383;DHT22;42455;51.660;5.824;2023-06-24T20:55:28;26.0;69.5
45383;DHT22;42455;51.660;5.824;2023-06-24T21:00:34;25.8;70.5
45383;DHT22;42455;51.660;5.824;2023-06-24T21:05:40;25.6;71.0
45383;DHT22;42455;51.660;5.824;2023-06-24T21:10:46;25.5;71.0
45383;DHT22;42455;51.660;5.824;2023-06-24T21:15:53;25.3;71.5
45383;DHT22;42455;51.660;5.824;2023-06-24T21:20:59;25.2;72.0
45383;DHT22;42455;51.660;5.824;2023-06-24T21:26:05;25.0;72.5
45383;DHT22;42455;51.660;5.824;2023-06-24T21:31:11;24.9;73.0
45383;DHT22;42455;51.660;5.824;2023-06-24T21:36:17;24.7;73.5
45383;DHT22;42455;51.660;5.824;2023-06-24T21:41:24;24.6;74.5
45383;DHT22;42455;51.660;5.824;2023-06-24T21:46:30;24.4;74.5
45383;DHT22;42455;51.660;5.824;2023-06-24T21:51:38;24.3;75.5
45383;DHT22;42455;51.660;5.824;2023-06-24T21:56:42;24.2;75.5
45383;DHT22;42455;51.660;5.824;2023-06-24T22:01:49;24.1;76.0
45383;DHT22;42455;51.660;5.824;2023-06-24T22:06:55;23.9;76.5
45383;DHT22;42455;51.660;5.824;2023-06-24T22:12:01;23.8;77.0
45383;DHT22;42455;51.660;5.824;2023-06-24T22:17:07;23.7;77.0
45383;DHT22;42455;51.660;5.824;2023-06-24T22:22:13;23.6;77.5
45383;DHT22;42455;51.660;5.824;2023-06-24T22:27:20;23.5;77.5
45383;DHT22;42455;51.660;5.824;2023-06-24T22:32:25;23.4;78.0
45383;DHT22;42455;51.660;5.824;2023-06-24T22:37:31;23.3;78.5
45383;DHT22;42455;51.660;5.824;2023-06-24T22:42:37;23.2;79.0
45383;DHT22;42455;51.660;5.824;2023-06-24T22:47:43;23.1;79.0
45383;DHT22;42455;51.660;5.824;2023-06-24T22:52:50;23.0;79.5
45383;DHT22;42455;51.660;5.824;2023-06-24T22:57:56;23.0;79.5
45383;DHT22;42455;51.660;5.824;2023-06-24T23:03:02;22.9;80.0
45383;DHT22;42455;51.660;5.824;2023-06-24T23:08:09;22.8;80.5
45383;DHT22;42455;51.660;5.824;2023-06-24T23:13:15;22.8;80.5
45383;DHT22;42455;51.660;5.824;2023-06-24T23:18:21;22.7;81.0
45383;DHT22;42455;51.660;5.824;2023-06-24T23:23:27;22.6;81.0
45383;DHT22;42455;51.660;5.824;2023-06-24T23:28:34;22.5;81.5
45383;DHT22;42455;51.660;5.824;2023-06-24T23:33:40;22.4;81.5
45383;DHT22;42455;51.660;5.824;2023-06-24T23:38:46;22.4;82.0
45383;DHT22;42455;51.660;5.824;2023-06-24T23:43:52;22.3;82.0
45383;DHT22;42455;51.660;5.824;2023-06-24T23:48:58;22.2;82.5
45383;DHT22;42455;51.660;5.824;2023-06-24T23:54:04;22.1;83.0
45383;DHT22;42455;51.660;5.824;2023-06-24T23:59:10;22.1;83.0
